createdAt,value
2018-03-26T00:02:12.328Z,12.60
2018-03-26T00:04:38.588Z,13.00
2018-03-26T00:07:04.885Z,10.33
2018-03-26T00:09:31.184Z,10.57
2018-03-26T00:11:58.259Z,13.00
2018-03-26T00:14:24.569Z,11.57
2018-03-26T00:16:50.925Z,11.70
2018-03-26T00:19:17.260Z,14.77
2018-03-26T00:21:43.560Z,10.70
2018-03-26T00:24:09.824Z,10.83
2018-03-26T00:26:36.103Z,13.63
2018-03-26T00:29:03.136Z,12.77
2018-03-26T00:31:29.515Z,11.27
2018-03-26T00:33:55.813Z,11.33
2018-03-26T00:36:22.854Z,11.23
2018-03-26T00:38:49.932Z,12.53
2018-03-26T00:41:16.224Z,10.93
2018-03-26T00:43:42.477Z,9.40
2018-03-26T00:46:09.528Z,12.07
2018-03-26T00:48:36.545Z,12.70
2018-03-26T00:51:02.832Z,12.17
2018-03-26T00:53:41.368Z,11.30
2018-03-26T00:56:07.763Z,11.23
2018-03-26T00:58:34.056Z,13.30
2018-03-26T01:01:00.345Z,10.20
2018-03-26T01:03:26.670Z,13.73
2018-03-26T01:05:52.984Z,11.20
2018-03-26T01:08:19.331Z,10.93
2018-03-26T01:10:45.615Z,11.33
2018-03-26T01:13:11.907Z,10.47
2018-03-26T01:15:38.180Z,10.30
2018-03-26T01:18:04.460Z,12.80
2018-03-26T01:20:30.741Z,9.67
2018-03-26T01:22:57.000Z,10.40
2018-03-26T01:25:23.295Z,11.57
2018-03-26T01:27:49.566Z,11.40
2018-03-26T01:30:15.840Z,12.77
2018-03-26T01:32:42.141Z,11.47
2018-03-26T01:35:08.420Z,11.00
2018-03-26T01:37:34.732Z,11.33
2018-03-26T01:40:01.034Z,9.63
2018-03-26T01:42:27.331Z,10.43
2018-03-26T01:44:54.377Z,10.90
2018-03-26T01:47:21.400Z,11.17
2018-03-26T01:49:47.691Z,12.40
2018-03-26T01:52:14.118Z,11.13
2018-03-26T01:54:40.428Z,12.23
2018-03-26T01:57:06.712Z,10.60
2018-03-26T01:59:33.008Z,12.60
2018-03-26T02:01:59.321Z,13.67
2018-03-26T02:04:25.631Z,15.13
2018-03-26T02:06:52.661Z,13.00
2018-03-26T02:09:18.920Z,12.77
2018-03-26T02:11:45.948Z,12.10
2018-03-26T02:14:12.989Z,11.77
2018-03-26T02:16:39.292Z,12.00
2018-03-26T02:19:05.596Z,12.47
2018-03-26T02:21:31.932Z,12.43
2018-03-26T02:23:58.193Z,14.17
2018-03-26T02:26:24.593Z,13.37
2018-03-26T02:28:50.901Z,14.30
2018-03-26T02:31:17.919Z,13.43
2018-03-26T02:33:44.232Z,14.60
2018-03-26T02:36:10.501Z,12.60
2018-03-26T02:38:37.531Z,13.23
2018-03-26T02:41:03.825Z,14.47
2018-03-26T02:43:30.331Z,13.80
2018-03-26T02:45:56.646Z,13.60
2018-03-26T02:48:23.678Z,12.77
2018-03-26T02:50:49.961Z,13.43
2018-03-26T02:53:16.288Z,14.20
2018-03-26T02:55:42.620Z,16.10
2018-03-26T02:58:08.904Z,14.37
2018-03-26T03:00:35.997Z,14.27
2018-03-26T03:03:02.302Z,15.40
2018-03-26T03:05:29.328Z,14.07
2018-03-26T03:07:55.624Z,11.93
2018-03-26T03:10:21.913Z,11.67
2018-03-26T03:12:48.936Z,12.23
2018-03-26T03:15:15.226Z,14.33
2018-03-26T03:17:41.568Z,11.93
2018-03-26T03:20:07.985Z,13.73
2018-03-26T03:22:34.338Z,13.80
2018-03-26T03:25:00.637Z,11.07
2018-03-26T03:27:26.954Z,13.97
2018-03-26T03:29:53.989Z,12.27
2018-03-26T03:32:21.016Z,14.87
2018-03-26T03:34:47.301Z,11.07
2018-03-26T03:37:13.559Z,13.17
2018-03-26T03:39:39.899Z,16.40
2018-03-26T03:42:06.204Z,14.17
2018-03-26T03:44:32.525Z,13.33
2018-03-26T03:46:58.838Z,13.03
2018-03-26T03:49:25.156Z,14.00
2018-03-26T03:51:52.200Z,13.87
2018-03-26T03:54:19.296Z,13.43
2018-03-26T03:56:45.612Z,14.30
2018-03-26T03:59:11.941Z,19.97
2018-03-26T04:01:38.220Z,14.73
2018-03-26T04:04:04.499Z,12.00
2018-03-26T04:06:30.777Z,15.97
2018-03-26T04:08:57.071Z,12.20
2018-03-26T04:11:23.393Z,16.67
2018-03-26T04:13:49.700Z,13.40
2018-03-26T04:16:15.986Z,12.23
2018-03-26T04:18:42.399Z,12.73
2018-03-26T04:21:08.696Z,13.83
2018-03-26T04:23:34.977Z,13.63
2018-03-26T04:26:01.357Z,13.37
2018-03-26T04:28:27.637Z,13.43
2018-03-26T04:30:53.912Z,14.83
2018-03-26T04:33:20.937Z,14.03
2018-03-26T04:35:47.231Z,17.13
2018-03-26T04:38:13.528Z,14.33
2018-03-26T04:40:39.841Z,13.50
2018-03-26T04:43:06.861Z,13.40
2018-03-26T04:45:33.186Z,25.50
2018-03-26T04:47:59.465Z,22.07
2018-03-26T04:50:25.765Z,17.57
2018-03-26T04:52:52.170Z,16.33
2018-03-26T04:55:18.492Z,16.97
2018-03-26T04:57:44.901Z,17.87
2018-03-26T05:00:11.244Z,13.53
2018-03-26T05:02:37.540Z,16.73
2018-03-26T05:05:04.624Z,15.73
2018-03-26T05:07:30.948Z,15.77
2018-03-26T05:09:57.257Z,15.70
2018-03-26T05:12:24.333Z,15.87
2018-03-26T05:14:50.623Z,14.27
2018-03-26T05:17:17.674Z,17.77
2018-03-26T05:19:45.678Z,20.77
2018-03-26T05:22:12.045Z,18.90
2018-03-26T05:24:38.348Z,16.53
2018-03-26T05:27:04.656Z,18.60
2018-03-26T05:29:31.113Z,20.00
2018-03-26T05:31:57.434Z,15.90
2018-03-26T05:34:23.792Z,14.83
2018-03-26T05:36:50.208Z,17.80
2018-03-26T05:39:16.544Z,15.43
2018-03-26T05:41:42.852Z,20.03
2018-03-26T05:44:09.181Z,21.83
2018-03-26T05:46:35.513Z,19.63
2018-03-26T05:49:01.820Z,19.03
2018-03-26T05:51:28.868Z,20.27
2018-03-26T05:53:55.940Z,19.20
2018-03-26T05:56:22.216Z,19.07
2018-03-26T05:58:48.488Z,17.20
2018-03-26T06:01:15.533Z,18.53
2018-03-26T06:03:42.592Z,17.43
2018-03-26T06:06:08.865Z,15.70
2018-03-26T06:08:35.180Z,16.47
2018-03-26T06:11:01.617Z,17.43
2018-03-26T06:13:27.915Z,16.60
2018-03-26T06:15:54.179Z,17.23
2018-03-26T06:18:20.502Z,15.30
2018-03-26T06:20:46.856Z,18.60
2018-03-26T06:23:13.276Z,18.17
2018-03-26T06:25:39.588Z,18.13
2018-03-26T06:28:05.940Z,18.63
2018-03-26T06:30:32.479Z,16.53
2018-03-26T06:32:59.484Z,16.67
2018-03-26T06:35:25.785Z,15.87
2018-03-26T06:38:12.892Z,18.80
2018-03-26T06:40:39.196Z,17.07
2018-03-26T06:43:05.500Z,17.03
2018-03-26T06:45:31.820Z,20.57
2018-03-26T06:47:58.841Z,24.23
2018-03-26T06:50:25.137Z,24.93
2018-03-26T06:52:51.422Z,18.60
2018-03-26T06:55:18.461Z,20.60
2018-03-26T06:57:45.529Z,17.07
2018-03-26T07:00:11.876Z,22.87
2018-03-26T07:02:38.272Z,21.83
2018-03-26T07:05:05.371Z,26.42
2018-03-26T07:07:31.677Z,30.45
2018-03-26T07:09:58.731Z,20.63
2018-03-26T07:12:25.031Z,20.47
2018-03-26T07:14:51.393Z,29.02
2018-03-26T07:17:17.685Z,29.67
2018-03-26T07:19:44.084Z,22.43
2018-03-26T07:22:10.446Z,19.03
2018-03-26T07:24:36.758Z,20.23
2018-03-26T07:27:03.310Z,18.83
2018-03-26T07:29:29.610Z,21.03
2018-03-26T07:31:55.908Z,19.13
2018-03-26T07:34:23.082Z,21.47
2018-03-26T07:36:49.436Z,22.50
2018-03-26T07:39:15.768Z,16.87
2018-03-26T07:41:42.178Z,27.90
2018-03-26T07:44:08.495Z,23.50
2018-03-26T07:46:34.787Z,22.80
2018-03-26T07:49:01.170Z,29.63
2018-03-26T07:51:27.529Z,32.50
2018-03-26T07:53:53.815Z,22.07
2018-03-26T07:56:20.135Z,21.97
2018-03-26T07:58:47.165Z,30.00
2018-03-26T08:01:14.208Z,27.80
2018-03-26T08:03:40.488Z,23.50
2018-03-26T08:06:06.880Z,21.53
2018-03-26T08:08:33.955Z,19.00
2018-03-26T08:11:00.264Z,21.10
2018-03-26T08:13:27.312Z,22.67
2018-03-26T08:15:54.364Z,19.57
2018-03-26T08:18:22.332Z,20.53
2018-03-26T08:20:48.676Z,22.33
2018-03-26T08:23:15.119Z,29.70
2018-03-26T08:25:41.432Z,23.40
2018-03-26T08:28:08.448Z,23.97
2018-03-26T08:30:34.740Z,23.43
2018-03-26T08:33:01.026Z,18.77
2018-03-26T08:35:28.067Z,22.17
2018-03-26T08:37:54.352Z,20.80
2018-03-26T08:40:20.682Z,20.53
2018-03-26T08:42:47.072Z,20.33
2018-03-26T08:45:14.188Z,20.53
2018-03-26T08:47:40.840Z,22.60
2018-03-26T08:50:08.022Z,20.17
2018-03-26T08:52:34.313Z,18.87
2018-03-26T08:55:00.611Z,19.50
2018-03-26T08:57:26.949Z,19.50
2018-03-26T08:59:53.284Z,20.13
2018-03-26T09:02:19.639Z,19.37
2018-03-26T09:04:46.036Z,16.33
2018-03-26T09:07:12.374Z,19.23
2018-03-26T09:09:38.716Z,18.20
2018-03-26T09:12:05.144Z,17.17
2018-03-26T09:14:31.436Z,17.60
2018-03-26T09:16:58.518Z,18.60
2018-03-26T09:19:24.815Z,17.83
2018-03-26T09:21:51.933Z,20.60
2018-03-26T09:24:18.326Z,19.50
2018-03-26T09:26:44.645Z,18.97
2018-03-26T09:29:10.965Z,18.83
2018-03-26T09:31:38.220Z,16.77
2018-03-26T09:34:04.556Z,19.50
2018-03-26T09:36:30.896Z,17.27
2018-03-26T09:38:57.258Z,16.70
2018-03-26T09:41:23.614Z,18.23
2018-03-26T09:43:49.976Z,20.13
2018-03-26T09:46:16.312Z,21.10
2018-03-26T09:48:42.601Z,19.77
2018-03-26T09:51:08.944Z,18.27
2018-03-26T09:53:35.993Z,16.40
2018-03-26T09:56:03.060Z,17.90
2018-03-26T09:58:30.136Z,18.00
2018-03-26T10:01:01.379Z,18.00
2018-03-26T10:03:27.716Z,17.23
2018-03-26T10:05:54.000Z,18.77
2018-03-26T10:08:21.097Z,18.07
2018-03-26T10:10:47.426Z,20.87
2018-03-26T10:13:13.730Z,17.67
2018-03-26T10:15:40.131Z,19.63
2018-03-26T10:18:06.432Z,18.73
2018-03-26T10:20:32.776Z,23.53
2018-03-26T10:22:59.085Z,24.80
2018-03-26T10:25:25.402Z,21.10
2018-03-26T10:27:51.720Z,18.63
2018-03-26T10:30:18.058Z,21.17
2018-03-26T10:32:44.364Z,20.10
2018-03-26T10:35:11.416Z,19.07
2018-03-26T10:37:38.480Z,18.27
2018-03-26T10:40:04.756Z,24.40
2018-03-26T10:42:31.060Z,20.80
2018-03-26T10:44:57.391Z,21.53
2018-03-26T10:47:23.726Z,19.87
2018-03-26T10:49:50.118Z,21.00
2018-03-26T10:52:17.240Z,18.97
2018-03-26T10:54:43.601Z,19.80
2018-03-26T10:57:10.681Z,24.20
2018-03-26T10:59:36.976Z,19.87
2018-03-26T11:02:04.037Z,22.00
2018-03-26T11:04:30.352Z,18.43
2018-03-26T11:06:57.400Z,19.97
2018-03-26T11:09:24.469Z,21.57
2018-03-26T11:11:50.789Z,18.10
2018-03-26T11:14:17.824Z,17.60
2018-03-26T11:16:44.896Z,19.17
2018-03-26T11:19:12.197Z,21.10
2018-03-26T11:21:38.723Z,19.50
2018-03-26T11:24:05.333Z,20.03
2018-03-26T11:26:31.792Z,23.73
2018-03-26T11:28:58.076Z,21.53
2018-03-26T11:31:25.098Z,20.30
2018-03-26T11:33:51.374Z,20.47
2018-03-26T11:36:17.673Z,23.20
2018-03-26T11:38:44.033Z,19.43
2018-03-26T11:41:10.408Z,18.73
2018-03-26T11:43:36.942Z,20.40
2018-03-26T11:46:03.248Z,21.23
2018-03-26T11:48:29.550Z,22.50
2018-03-26T11:50:55.848Z,18.50
2018-03-26T11:53:22.132Z,20.43
2018-03-26T11:55:48.421Z,20.67
2018-03-26T11:58:15.571Z,17.47
2018-03-26T12:00:42.737Z,21.43
2018-03-26T12:03:09.788Z,17.97
2018-03-26T12:05:36.818Z,16.40
2018-03-26T12:08:03.091Z,17.67
2018-03-26T12:10:29.368Z,19.17
2018-03-26T12:12:55.669Z,19.33
2018-03-26T12:15:21.956Z,17.00
2018-03-26T12:17:48.999Z,15.30
2018-03-26T12:20:28.314Z,17.80
2018-03-26T12:22:54.653Z,16.20
2018-03-26T12:25:21.036Z,16.63
2018-03-26T12:28:00.076Z,15.90
2018-03-26T12:30:26.390Z,15.73
2018-03-26T12:32:52.718Z,17.17
2018-03-26T12:35:31.265Z,16.73
2018-03-26T12:37:57.559Z,13.87
2018-03-26T12:40:35.988Z,15.40
2018-03-26T12:43:02.322Z,13.67
2018-03-26T12:45:40.672Z,13.90
2018-03-26T12:48:06.972Z,16.40
2018-03-26T12:50:45.359Z,18.90
2018-03-26T12:53:11.682Z,17.23
2018-03-26T12:55:38.713Z,16.33
2018-03-26T12:58:17.902Z,15.27
2018-03-26T13:00:50.346Z,15.57
2018-03-26T13:03:16.650Z,13.57
2018-03-26T13:05:43.679Z,16.53
2018-03-26T13:08:09.957Z,17.63
2018-03-26T13:10:36.237Z,18.43
2018-03-26T13:13:02.568Z,17.60
2018-03-26T13:15:28.929Z,18.33
2018-03-26T13:17:55.953Z,16.60
2018-03-26T13:20:22.245Z,18.53
2018-03-26T13:22:48.520Z,17.07
2018-03-26T13:25:15.581Z,17.67
2018-03-26T13:27:42.604Z,19.10
2018-03-26T13:30:08.894Z,16.23
2018-03-26T13:32:35.229Z,18.70
2018-03-26T13:35:01.554Z,19.43
2018-03-26T13:37:27.852Z,15.20
2018-03-26T13:39:54.878Z,17.17
2018-03-26T13:42:21.197Z,16.83
2018-03-26T13:44:47.515Z,15.47
2018-03-26T13:47:13.823Z,21.50
2018-03-26T13:49:40.114Z,17.50
2018-03-26T13:52:07.178Z,22.40
2018-03-26T13:54:34.220Z,20.20
2018-03-26T13:57:01.276Z,20.53
2018-03-26T13:59:28.342Z,20.10
2018-03-26T14:01:54.660Z,23.30
2018-03-26T14:04:20.962Z,20.33
2018-03-26T14:06:47.275Z,19.70
2018-03-26T14:09:25.721Z,18.50
2018-03-26T14:12:04.960Z,23.50
2018-03-26T14:14:44.272Z,20.63
2018-03-26T14:17:22.611Z,19.87
2018-03-26T14:19:49.709Z,22.67
2018-03-26T14:22:16.062Z,21.47
2018-03-26T14:24:43.415Z,17.10
2018-03-26T14:27:10.527Z,20.63
2018-03-26T14:29:36.877Z,19.17
2018-03-26T14:32:03.194Z,24.00
2018-03-26T14:34:29.538Z,20.57
2018-03-26T14:36:56.091Z,21.73
2018-03-26T14:39:22.460Z,19.80
2018-03-26T14:41:49.497Z,16.10
2018-03-26T14:44:16.553Z,18.37
2018-03-26T14:46:43.620Z,19.70
2018-03-26T14:49:09.930Z,17.83
2018-03-26T14:51:37.010Z,18.60
2018-03-26T14:54:03.451Z,20.87
2018-03-26T14:56:29.909Z,18.03
2018-03-26T14:58:56.351Z,21.53
2018-03-26T15:01:22.948Z,19.30
2018-03-26T15:03:55.333Z,18.97
2018-03-26T15:06:21.705Z,20.00
2018-03-26T15:08:48.067Z,16.90
2018-03-26T15:11:14.360Z,18.80
2018-03-26T15:13:40.832Z,17.37
2018-03-26T15:16:07.345Z,17.90
2018-03-26T15:18:33.740Z,18.40
2018-03-26T15:21:00.053Z,18.63
2018-03-26T15:23:26.397Z,16.03
2018-03-26T15:25:52.717Z,20.80
2018-03-26T15:28:19.072Z,16.07
2018-03-26T15:30:45.389Z,12.97
2018-03-26T15:33:11.699Z,15.00
2018-03-26T15:35:38.053Z,16.23
2018-03-26T15:38:04.468Z,16.07
2018-03-26T15:40:30.804Z,16.43
2018-03-26T15:42:57.072Z,17.27
2018-03-26T15:45:23.426Z,18.30
2018-03-26T15:47:49.725Z,15.63
2018-03-26T15:50:16.030Z,14.50
2018-03-26T15:52:42.393Z,15.53
2018-03-26T15:55:08.697Z,18.30
2018-03-26T15:57:35.028Z,16.50
2018-03-26T16:00:01.406Z,14.77
2018-03-26T16:02:34.443Z,13.70
2018-03-26T16:05:01.153Z,15.13
2018-03-26T16:07:28.204Z,14.20
2018-03-26T16:09:54.802Z,13.60
2018-03-26T16:12:21.172Z,13.77
2018-03-26T16:14:47.467Z,16.03
2018-03-26T16:17:14.446Z,14.40
2018-03-26T16:19:42.043Z,12.17
2018-03-26T16:22:08.477Z,15.27
2018-03-26T16:24:34.821Z,14.37
2018-03-26T16:27:01.150Z,15.23
2018-03-26T16:29:27.440Z,12.63
2018-03-26T16:31:54.024Z,12.83
2018-03-26T16:34:20.437Z,12.80
2018-03-26T16:36:46.724Z,13.93
2018-03-26T16:39:14.197Z,13.37
2018-03-26T16:41:45.979Z,16.33
2018-03-26T16:44:12.332Z,13.60
2018-03-26T16:46:38.644Z,16.20
2018-03-26T16:49:04.982Z,11.87
2018-03-26T16:51:31.294Z,13.73
2018-03-26T16:53:57.582Z,14.77
2018-03-26T16:56:23.928Z,15.00
2018-03-26T16:58:50.994Z,13.40
2018-03-26T17:01:17.269Z,15.47
2018-03-26T17:03:43.652Z,14.30
2018-03-26T17:06:10.678Z,16.63
2018-03-26T17:08:37.873Z,13.83
2018-03-26T17:11:04.144Z,15.20
2018-03-26T17:13:30.568Z,14.37
2018-03-26T17:15:56.864Z,13.23
2018-03-26T17:18:23.235Z,12.73
2018-03-26T17:20:49.535Z,14.83
2018-03-26T17:23:15.866Z,14.07
2018-03-26T17:25:42.433Z,13.47
2018-03-26T17:28:08.833Z,14.33
2018-03-26T17:30:35.135Z,13.43
2018-03-26T17:33:01.620Z,12.97
2018-03-26T17:35:28.402Z,15.43
2018-03-26T17:37:55.444Z,13.73
2018-03-26T17:40:22.511Z,13.57
2018-03-26T17:42:48.800Z,14.80
2018-03-26T17:45:15.170Z,15.50
2018-03-26T17:47:41.460Z,16.40
2018-03-26T17:50:07.849Z,16.53
2018-03-26T17:52:34.176Z,15.63
2018-03-26T17:55:00.469Z,17.45
2018-03-26T17:57:26.881Z,17.23
2018-03-26T17:59:53.151Z,20.03
2018-03-26T18:02:20.282Z,20.73
2018-03-26T18:04:47.393Z,19.33
2018-03-26T18:07:13.677Z,19.73
2018-03-26T18:09:40.705Z,17.57
2018-03-26T18:12:07.002Z,16.37
2018-03-26T18:14:33.311Z,15.87
2018-03-26T18:16:59.621Z,13.57
2018-03-26T18:19:26.773Z,20.60
2018-03-26T18:21:53.100Z,15.80
2018-03-26T18:24:20.135Z,17.43
2018-03-26T18:26:47.303Z,17.47
2018-03-26T18:29:14.357Z,14.97
2018-03-26T18:31:40.682Z,30.17
2018-03-26T18:34:07.043Z,30.33
2018-03-26T18:36:33.397Z,21.10
2018-03-26T18:38:59.753Z,18.57
2018-03-26T18:41:27.109Z,19.60
2018-03-26T18:43:54.537Z,18.07
2018-03-26T18:46:20.970Z,15.53
2018-03-26T18:48:48.841Z,18.80
2018-03-26T18:51:15.492Z,16.40
2018-03-26T18:53:41.777Z,18.03
2018-03-26T18:56:08.094Z,16.53
2018-03-26T18:58:35.272Z,14.93
2018-03-26T19:01:01.610Z,17.97
2018-03-26T19:03:28.050Z,14.67
2018-03-26T19:05:54.389Z,16.10
2018-03-26T19:08:20.819Z,15.77
2018-03-26T19:10:47.142Z,16.30
2018-03-26T19:13:13.529Z,17.17
2018-03-26T19:15:40.044Z,15.77
2018-03-26T19:18:06.355Z,15.87
2018-03-26T19:20:32.692Z,15.47
2018-03-26T19:22:59.067Z,16.47
2018-03-26T19:25:25.385Z,15.27
2018-03-26T19:27:52.670Z,16.40
2018-03-26T19:30:18.997Z,16.70
2018-03-26T19:32:45.329Z,17.07
2018-03-26T19:35:11.673Z,16.90
2018-03-26T19:37:37.951Z,17.60
2018-03-26T19:40:05.016Z,18.30
2018-03-26T19:42:31.368Z,18.27
2018-03-26T19:44:57.710Z,19.17
2018-03-26T19:47:24.036Z,19.13
2018-03-26T19:49:50.722Z,22.77
2018-03-26T19:52:17.007Z,20.93
2018-03-26T19:54:43.272Z,20.57
2018-03-26T19:57:09.567Z,17.40
2018-03-26T19:59:35.816Z,18.13
2018-03-26T20:02:02.100Z,17.47
2018-03-26T20:04:29.157Z,18.27
2018-03-26T20:06:55.463Z,16.97
2018-03-26T20:09:22.572Z,17.67
2018-03-26T20:11:48.847Z,15.87
2018-03-26T20:14:15.897Z,19.53
2018-03-26T20:16:42.950Z,17.17
2018-03-26T20:19:10.068Z,16.27
2018-03-26T20:21:36.465Z,14.80
2018-03-26T20:24:02.799Z,14.83
2018-03-26T20:26:29.100Z,15.20
2018-03-26T20:28:56.136Z,16.67
2018-03-26T20:31:23.180Z,15.57
2018-03-26T20:33:49.483Z,17.60
2018-03-26T20:36:15.954Z,15.83
2018-03-26T20:38:43.012Z,18.07
2018-03-26T20:41:09.385Z,17.50
2018-03-26T20:43:35.694Z,17.17
2018-03-26T20:46:01.997Z,18.33
2018-03-26T20:48:29.069Z,18.77
2018-03-26T20:50:55.382Z,17.17
2018-03-26T20:53:21.655Z,17.10
2018-03-26T20:55:47.973Z,17.40
2018-03-26T20:58:14.272Z,17.20
2018-03-26T21:00:41.297Z,16.93
2018-03-26T21:03:08.379Z,18.23
2018-03-26T21:05:34.705Z,18.23
2018-03-26T21:08:01.012Z,19.00
2018-03-26T21:10:28.055Z,18.83
2018-03-26T21:12:54.443Z,23.57
2018-03-26T21:15:20.858Z,21.77
2018-03-26T21:17:47.184Z,22.10
2018-03-26T21:20:13.573Z,21.97
2018-03-26T21:22:39.880Z,19.73
2018-03-26T21:25:06.239Z,18.97
2018-03-26T21:27:32.637Z,22.87
2018-03-26T21:29:58.959Z,22.27
2018-03-26T21:32:25.334Z,22.13
2018-03-26T21:34:52.425Z,22.63
2018-03-26T21:37:18.734Z,21.70
2018-03-26T21:39:45.769Z,20.03
2018-03-26T21:42:12.467Z,23.87
2018-03-26T21:44:38.824Z,19.13
2018-03-26T21:47:05.203Z,21.43
2018-03-26T21:49:31.578Z,19.60
2018-03-26T21:51:57.912Z,19.03
2018-03-26T21:54:24.224Z,21.37
2018-03-26T21:56:50.660Z,19.43
2018-03-26T21:59:16.993Z,21.80
2018-03-26T22:01:43.455Z,20.90
2018-03-26T22:04:09.769Z,19.67
2018-03-26T22:06:36.102Z,20.70
2018-03-26T22:09:02.481Z,22.20
2018-03-26T22:11:29.531Z,21.67
2018-03-26T22:13:55.848Z,20.57
2018-03-26T22:16:22.958Z,19.30
2018-03-26T22:18:49.261Z,24.27
2018-03-26T22:21:15.600Z,17.93
2018-03-26T22:23:41.908Z,23.27
2018-03-26T22:26:08.236Z,21.03
2018-03-26T22:28:34.608Z,24.40
2018-03-26T22:31:00.913Z,25.97
2018-03-26T22:33:27.324Z,22.20
2018-03-26T22:35:54.365Z,25.87
2018-03-26T22:38:21.437Z,22.93
2018-03-26T22:40:47.742Z,20.97
2018-03-26T22:43:14.821Z,23.67
2018-03-26T22:45:41.134Z,25.07
2018-03-26T22:48:08.153Z,23.23
2018-03-26T22:50:34.447Z,22.60
2018-03-26T22:53:00.759Z,26.20
2018-03-26T22:55:27.056Z,25.77
2018-03-26T22:57:53.369Z,20.20
2018-03-26T23:00:19.780Z,22.13
2018-03-26T23:02:46.083Z,24.37
2018-03-26T23:05:12.399Z,24.70
2018-03-26T23:07:38.700Z,21.77
2018-03-26T23:10:04.998Z,21.80
2018-03-26T23:12:31.333Z,25.87
2018-03-26T23:14:57.660Z,23.10
2018-03-26T23:17:23.961Z,24.77
2018-03-26T23:19:50.325Z,24.33
2018-03-26T23:22:28.764Z,24.37
2018-03-26T23:24:55.113Z,20.50
2018-03-26T23:27:21.479Z,24.87
2018-03-26T23:29:47.818Z,22.43
2018-03-26T23:32:14.124Z,22.20
2018-03-26T23:34:41.172Z,23.00
2018-03-26T23:37:08.224Z,27.03
2018-03-26T23:39:35.261Z,26.37
2018-03-26T23:42:02.320Z,26.47
2018-03-26T23:44:29.416Z,26.17
2018-03-26T23:46:55.733Z,26.13
2018-03-26T23:49:22.065Z,22.63
2018-03-26T23:51:48.382Z,25.33
2018-03-26T23:54:14.713Z,24.90
2018-03-26T23:56:41.045Z,25.50
2018-03-26T23:59:07.353Z,30.13
